createdAt,value
2018-11-22T00:02:00.848Z,56.00
2018-11-22T00:04:09.469Z,56.06
2018-11-22T00:06:15.679Z,56.13
2018-11-22T00:08:21.761Z,56.12
2018-11-22T00:10:28.565Z,56.13
2018-11-22T00:12:34.882Z,56.11
2018-11-22T00:14:41.301Z,56.11
2018-11-22T00:16:47.335Z,56.15
2018-11-22T00:18:53.369Z,56.17
2018-11-22T00:20:59.434Z,56.15
2018-11-22T00:23:05.795Z,56.12
2018-11-22T00:25:13.575Z,56.09
2018-11-22T00:27:18.143Z,56.09
2018-11-22T00:29:24.302Z,56.10
2018-11-22T00:31:30.848Z,56.10
2018-11-22T00:33:36.911Z,56.11
2018-11-22T00:35:42.982Z,56.11
2018-11-22T00:37:50.197Z,56.06
2018-11-22T00:39:56.321Z,56.03
2018-11-22T00:42:02.368Z,55.97
2018-11-22T00:44:08.477Z,55.99
2018-11-22T00:46:14.694Z,56.00
2018-11-22T00:48:20.784Z,56.07
2018-11-22T00:50:27.325Z,56.11
2018-11-22T00:52:33.986Z,56.13
2018-11-22T00:54:40.012Z,56.15
2018-11-22T00:56:46.115Z,56.16
2018-11-22T00:58:52.218Z,56.18
2018-11-22T01:00:58.291Z,56.14
2018-11-22T01:03:04.366Z,56.12
2018-11-22T01:05:10.798Z,56.06
2018-11-22T01:07:16.940Z,56.02
2018-11-22T01:09:23.301Z,56.00
2018-11-22T01:11:29.786Z,56.03
2018-11-22T01:13:35.964Z,56.06
2018-11-22T01:15:42.053Z,56.07
2018-11-22T01:17:48.120Z,56.06
2018-11-22T01:19:54.421Z,56.08
2018-11-22T01:22:00.521Z,56.03
2018-11-22T01:24:06.608Z,56.06
2018-11-22T01:26:12.866Z,56.11
2018-11-22T01:28:18.489Z,56.11
2018-11-22T01:30:25.535Z,56.12
2018-11-22T01:32:31.622Z,56.07
2018-11-22T01:34:37.760Z,56.04
2018-11-22T01:36:43.847Z,56.05
2018-11-22T01:38:49.887Z,56.06
2018-11-22T01:40:55.983Z,56.06
2018-11-22T01:43:02.098Z,56.04
2018-11-22T01:45:11.393Z,56.05
2018-11-22T01:47:17.846Z,56.04
2018-11-22T01:49:23.896Z,56.02
2018-11-22T01:51:29.947Z,55.99
2018-11-22T01:53:36.003Z,56.00
2018-11-22T01:55:42.051Z,55.98
2018-11-22T01:57:48.417Z,56.01
2018-11-22T01:59:54.617Z,56.04
2018-11-22T02:02:00.704Z,56.05
2018-11-22T02:04:07.100Z,56.03
2018-11-22T02:06:13.548Z,56.02
2018-11-22T02:08:19.792Z,56.04
2018-11-22T02:10:25.894Z,56.07
2018-11-22T02:12:31.960Z,56.07
2018-11-22T02:14:38.294Z,56.08
2018-11-22T02:16:44.376Z,56.09
2018-11-22T02:18:50.507Z,56.11
2018-11-22T02:20:56.585Z,56.12
2018-11-22T02:23:38.835Z,56.05
2018-11-22T02:25:47.272Z,56.08
2018-11-22T02:27:55.285Z,56.07
2018-11-22T02:30:05.335Z,56.03
2018-11-22T02:32:13.532Z,55.99
2018-11-22T02:34:21.447Z,55.92
2018-11-22T02:36:29.499Z,55.91
2018-11-22T02:38:37.650Z,55.89
2018-11-22T02:40:45.917Z,55.91
2018-11-22T02:42:57.121Z,55.89
2018-11-22T02:45:05.941Z,55.89
2018-11-22T02:47:14.556Z,55.87
2018-11-22T02:49:22.546Z,55.87
2018-11-22T02:51:30.659Z,55.87
2018-11-22T02:53:38.619Z,55.90
2018-11-22T02:55:46.684Z,55.95
2018-11-22T02:57:54.811Z,55.97
2018-11-22T03:00:02.764Z,55.98
2018-11-22T03:02:11.156Z,55.96
2018-11-22T03:04:19.086Z,55.93
2018-11-22T03:06:27.356Z,55.93
2018-11-22T03:08:35.312Z,55.89
2018-11-22T03:10:43.479Z,55.96
2018-11-22T03:12:51.613Z,55.95
2018-11-22T03:14:59.770Z,55.92
2018-11-22T03:17:08.593Z,55.95
2018-11-22T03:19:16.709Z,55.94
2018-11-22T03:21:25.630Z,55.96
2018-11-22T03:23:33.577Z,55.95
2018-11-22T03:25:41.879Z,55.93
2018-11-22T03:27:51.362Z,55.95
2018-11-22T03:29:59.898Z,55.90
2018-11-22T03:32:08.879Z,55.86
2018-11-22T03:34:17.149Z,55.84
2018-11-22T03:36:25.300Z,55.81
2018-11-22T03:38:33.607Z,55.79
2018-11-22T03:40:41.529Z,55.77
2018-11-22T03:42:51.384Z,55.79
2018-11-22T03:44:59.367Z,55.74
2018-11-22T03:47:07.807Z,55.76
2018-11-22T03:49:16.180Z,55.75
2018-11-22T03:51:24.167Z,55.78
2018-11-22T03:53:32.183Z,55.76
2018-11-22T03:55:40.166Z,55.75
2018-11-22T03:57:48.758Z,55.69
2018-11-22T03:59:57.088Z,55.64
2018-11-22T04:02:05.377Z,55.57
2018-11-22T04:04:13.952Z,55.53
2018-11-22T04:06:21.895Z,55.49
2018-11-22T04:08:30.184Z,55.49
2018-11-22T04:10:38.188Z,55.46
2018-11-22T04:12:46.384Z,55.48
2018-11-22T04:14:54.397Z,55.49
2018-11-22T04:17:02.562Z,55.50
2018-11-22T04:19:10.854Z,55.49
2018-11-22T04:21:18.988Z,55.51
2018-11-22T04:23:27.699Z,55.52
2018-11-22T04:25:35.976Z,55.54
2018-11-22T04:27:45.139Z,55.60
2018-11-22T04:29:53.211Z,55.63
2018-11-22T04:32:01.409Z,55.62
2018-11-22T04:34:07.349Z,55.61
2018-11-22T04:36:15.498Z,55.61
2018-11-22T04:38:23.481Z,55.57
2018-11-22T04:40:32.459Z,55.58
2018-11-22T04:42:41.340Z,55.58
2018-11-22T04:44:49.293Z,55.57
2018-11-22T04:46:57.413Z,55.55
2018-11-22T04:49:06.780Z,55.52
2018-11-22T04:51:14.744Z,55.51
2018-11-22T04:53:22.703Z,55.55
2018-11-22T04:55:31.177Z,55.55
2018-11-22T04:57:39.262Z,55.59
2018-11-22T04:59:47.296Z,55.64
2018-11-22T05:01:55.846Z,55.68
2018-11-22T05:04:03.818Z,55.72
2018-11-22T05:06:11.858Z,55.76
2018-11-22T05:08:19.928Z,55.79
2018-11-22T05:10:29.290Z,55.79
2018-11-22T05:12:37.368Z,55.79
2018-11-22T05:14:45.334Z,55.77
2018-11-22T05:16:53.340Z,55.72
2018-11-22T05:19:01.300Z,55.70
2018-11-22T05:21:09.395Z,55.69
2018-11-22T05:23:17.788Z,55.67
2018-11-22T05:25:26.262Z,55.67
2018-11-22T05:27:34.286Z,55.69
2018-11-22T05:29:42.407Z,55.70
2018-11-22T05:31:50.571Z,55.70
2018-11-22T05:33:58.629Z,55.66
2018-11-22T05:36:07.479Z,55.64
2018-11-22T05:38:15.469Z,55.63
2018-11-22T05:40:25.585Z,55.62
2018-11-22T05:42:35.135Z,55.62
2018-11-22T05:44:43.110Z,55.61
2018-11-22T05:46:51.160Z,55.61
2018-11-22T05:48:59.152Z,55.65
2018-11-22T05:51:08.217Z,55.66
2018-11-22T05:53:16.498Z,55.72
2018-11-22T05:55:24.587Z,55.77
2018-11-22T05:57:32.822Z,55.76
2018-11-22T05:59:41.896Z,55.73
2018-11-22T06:01:49.859Z,55.68
2018-11-22T06:03:58.175Z,55.66
2018-11-22T06:06:06.383Z,55.64
2018-11-22T06:08:15.107Z,55.66
2018-11-22T06:10:25.420Z,55.63
2018-11-22T06:12:33.380Z,55.61
2018-11-22T06:14:41.339Z,55.62
2018-11-22T06:16:50.094Z,55.64
2018-11-22T06:18:58.071Z,55.68
2018-11-22T06:21:06.986Z,55.67
2018-11-22T06:23:15.682Z,55.74
2018-11-22T06:25:23.783Z,55.79
2018-11-22T06:27:31.944Z,55.78
2018-11-22T06:29:39.877Z,55.75
2018-11-22T06:31:48.846Z,55.73
2018-11-22T06:33:57.375Z,55.72
2018-11-22T06:36:05.314Z,55.78
2018-11-22T06:38:14.055Z,55.83
2018-11-22T06:40:21.975Z,55.82
2018-11-22T06:42:30.067Z,55.80
2018-11-22T06:44:38.072Z,55.78
2018-11-22T06:46:45.984Z,55.79
2018-11-22T06:48:54.035Z,55.79
2018-11-22T06:51:02.634Z,55.76
2018-11-22T06:53:10.606Z,55.74
2018-11-22T06:55:21.832Z,55.71
2018-11-22T06:57:29.784Z,55.70
2018-11-22T06:59:37.852Z,55.66
2018-11-22T07:01:45.850Z,55.65
2018-11-22T07:03:55.268Z,55.63
2018-11-22T07:06:03.961Z,55.63
2018-11-22T07:08:11.920Z,55.59
2018-11-22T07:10:20.174Z,55.60
2018-11-22T07:12:28.216Z,55.60
2018-11-22T07:14:36.223Z,55.63
2018-11-22T07:16:44.240Z,55.65
2018-11-22T07:18:52.191Z,55.70
2018-11-22T07:21:00.278Z,55.73
2018-11-22T07:23:08.893Z,55.72
2018-11-22T07:25:19.471Z,55.76
2018-11-22T07:27:27.760Z,55.78
2018-11-22T07:29:35.753Z,55.83
2018-11-22T07:31:44.045Z,55.87
2018-11-22T07:33:51.993Z,55.90
2018-11-22T07:35:59.976Z,55.90
2018-11-22T07:38:08.900Z,55.87
2018-11-22T07:40:20.114Z,55.89
2018-11-22T07:42:28.694Z,55.89
2018-11-22T07:44:36.776Z,55.89
2018-11-22T07:46:45.087Z,55.88
2018-11-22T07:48:53.042Z,55.89
2018-11-22T07:51:01.032Z,55.88
2018-11-22T07:53:09.271Z,55.90
2018-11-22T07:55:18.302Z,55.95
2018-11-22T07:57:26.679Z,55.96
2018-11-22T07:59:35.042Z,55.97
2018-11-22T08:01:43.273Z,55.97
2018-11-22T08:03:51.193Z,56.05
2018-11-22T08:05:59.858Z,56.12
2018-11-22T08:08:08.109Z,56.21
2018-11-22T08:10:17.361Z,56.24
2018-11-22T08:12:26.489Z,56.28
2018-11-22T08:14:34.603Z,56.33
2018-11-22T08:16:43.364Z,56.35
2018-11-22T08:18:51.874Z,56.42
2018-11-22T08:21:04.741Z,56.44
2018-11-22T08:23:09.158Z,56.47
2018-11-22T08:25:18.579Z,56.46
2018-11-22T08:27:26.530Z,56.48
2018-11-22T08:29:35.544Z,56.52
2018-11-22T08:31:43.597Z,56.53
2018-11-22T08:33:51.705Z,56.53
2018-11-22T08:36:00.091Z,56.54
2018-11-22T08:38:08.217Z,56.57
2018-11-22T08:40:21.953Z,56.61
2018-11-22T08:42:29.966Z,56.70
2018-11-22T08:44:37.925Z,56.72
2018-11-22T08:46:45.984Z,56.71
2018-11-22T08:48:54.228Z,56.71
2018-11-22T08:51:03.010Z,56.70
2018-11-22T08:53:10.977Z,56.71
2018-11-22T08:55:19.478Z,56.72
2018-11-22T08:57:27.943Z,56.73
2018-11-22T08:59:35.920Z,56.75
2018-11-22T09:01:43.888Z,56.74
2018-11-22T09:03:51.958Z,56.75
2018-11-22T09:06:00.207Z,56.75
2018-11-22T09:08:05.921Z,56.73
2018-11-22T09:10:16.594Z,56.75
2018-11-22T09:12:24.651Z,56.78
2018-11-22T09:14:32.943Z,56.77
2018-11-22T09:16:41.809Z,56.77
2018-11-22T09:18:49.807Z,56.78
2018-11-22T09:20:57.748Z,56.76
2018-11-22T09:23:05.804Z,56.74
2018-11-22T09:25:14.858Z,56.72
2018-11-22T09:27:22.821Z,56.69
2018-11-22T09:29:30.835Z,56.69
2018-11-22T09:31:38.800Z,56.65
2018-11-22T09:35:54.812Z,56.50
2018-11-22T09:38:02.807Z,56.49
2018-11-22T09:40:16.969Z,56.46
2018-11-22T09:42:25.713Z,56.40
2018-11-22T09:44:34.045Z,56.38
2018-11-22T09:46:42.044Z,56.47
2018-11-22T09:48:50.062Z,56.48
2018-11-22T09:50:58.191Z,56.49
2018-11-22T09:53:07.661Z,56.44
2018-11-22T09:55:16.031Z,56.37
2018-11-22T09:57:24.007Z,56.32
2018-11-22T09:59:31.897Z,56.27
2018-11-22T10:01:40.053Z,56.25
2018-11-22T10:03:48.460Z,56.16
2018-11-22T10:05:56.857Z,56.15
2018-11-22T10:08:04.825Z,56.19
2018-11-22T10:10:16.038Z,56.12
2018-11-22T10:12:25.022Z,56.15
2018-11-22T10:14:33.006Z,56.18
2018-11-22T10:16:41.068Z,56.13
2018-11-22T10:18:49.256Z,56.04
2018-11-22T10:20:57.197Z,56.03
2018-11-22T10:23:05.788Z,55.99
2018-11-22T10:25:13.999Z,55.96
2018-11-22T10:27:21.947Z,55.92
2018-11-22T10:29:30.091Z,55.84
2018-11-22T10:31:38.274Z,55.71
2018-11-22T10:33:46.802Z,55.67
2018-11-22T10:35:54.870Z,55.64
2018-11-22T10:38:03.005Z,55.65
2018-11-22T10:40:14.143Z,55.59
2018-11-22T10:42:22.129Z,55.56
2018-11-22T10:44:30.449Z,55.48
2018-11-22T10:46:38.428Z,55.37
2018-11-22T10:48:46.468Z,55.42
2018-11-22T10:50:54.692Z,55.41
2018-11-22T10:53:02.697Z,55.42
2018-11-22T10:55:17.181Z,55.43
2018-11-22T10:57:25.173Z,55.40
2018-11-22T10:59:33.588Z,55.37
2018-11-22T11:01:59.166Z,55.30
2018-11-22T11:04:24.117Z,55.26
2018-11-22T11:06:59.491Z,55.19
2018-11-22T11:09:08.978Z,55.19
2018-11-22T11:11:17.591Z,55.18
2018-11-22T11:13:26.429Z,55.04
2018-11-22T11:15:34.401Z,54.98
2018-11-22T11:17:42.445Z,54.91
2018-11-22T11:19:52.848Z,54.88
2018-11-22T11:22:01.348Z,54.76
2018-11-22T11:24:09.349Z,54.72
2018-11-22T11:26:17.648Z,54.72
2018-11-22T11:28:25.591Z,54.72
2018-11-22T11:30:34.241Z,54.69
2018-11-22T11:32:42.303Z,54.65
2018-11-22T11:34:50.272Z,54.64
2018-11-22T11:36:58.234Z,54.57
2018-11-22T11:39:09.848Z,54.53
2018-11-22T11:41:17.894Z,54.48
2018-11-22T11:43:25.891Z,54.35
2018-11-22T11:45:50.416Z,54.33
2018-11-22T11:47:58.483Z,54.30
2018-11-22T11:50:08.473Z,54.29
2018-11-22T11:52:16.553Z,54.25
2018-11-22T11:54:24.492Z,54.20
2018-11-22T11:56:32.554Z,54.20
2018-11-22T11:58:40.677Z,54.19
2018-11-22T12:00:48.849Z,54.17
2018-11-22T12:02:56.928Z,54.13
2018-11-22T12:05:04.981Z,54.09
2018-11-22T12:07:13.378Z,54.07
2018-11-22T12:09:21.427Z,54.03
2018-11-22T12:11:27.789Z,54.00
2018-11-22T12:13:35.874Z,53.96
2018-11-22T12:17:52.638Z,53.95
2018-11-22T12:20:00.925Z,53.93
2018-11-22T12:22:09.232Z,53.95
2018-11-22T12:24:17.418Z,53.93
2018-11-22T12:26:25.445Z,53.96
2018-11-22T12:28:33.949Z,53.95
2018-11-22T12:30:42.521Z,53.98
2018-11-22T12:33:18.947Z,53.94
2018-11-22T12:35:44.778Z,53.95
2018-11-22T12:38:09.839Z,53.84
2018-11-22T12:40:17.951Z,53.83
2018-11-22T12:42:26.112Z,53.81
2018-11-22T12:44:34.135Z,53.74
2018-11-22T12:46:42.148Z,53.57
2018-11-22T12:48:51.307Z,53.38
2018-11-22T12:51:00.471Z,53.43
2018-11-22T12:53:08.508Z,53.33
2018-11-22T12:55:16.530Z,53.36
2018-11-22T12:57:24.793Z,53.32
2018-11-22T12:59:32.800Z,53.34
2018-11-22T13:01:41.236Z,53.32
2018-11-22T13:03:49.232Z,53.31
2018-11-22T13:05:57.462Z,53.29
2018-11-22T13:08:05.534Z,53.26
2018-11-22T13:10:15.464Z,53.22
2018-11-22T13:12:20.329Z,53.21
2018-11-22T13:14:28.404Z,53.20
2018-11-22T13:16:36.406Z,53.16
2018-11-22T13:18:44.630Z,53.17
2018-11-22T13:20:52.611Z,53.11
2018-11-22T13:23:00.784Z,53.12
2018-11-22T13:25:16.835Z,53.09
2018-11-22T13:27:25.145Z,53.03
2018-11-22T13:29:33.188Z,53.05
2018-11-22T13:31:42.666Z,53.06
2018-11-22T13:33:50.736Z,53.06
2018-11-22T13:35:59.040Z,53.00
2018-11-22T13:38:07.574Z,52.98
2018-11-22T13:40:15.719Z,52.95
2018-11-22T13:42:23.884Z,52.95
2018-11-22T13:44:31.879Z,52.90
2018-11-22T13:46:40.154Z,52.90
2018-11-22T13:48:48.229Z,52.89
2018-11-22T13:50:56.234Z,52.87
2018-11-22T13:53:06.059Z,52.82
2018-11-22T13:55:14.447Z,52.84
2018-11-22T13:57:22.489Z,52.83
2018-11-22T13:59:30.735Z,52.82
2018-11-22T14:01:38.861Z,52.81
2018-11-22T14:03:46.945Z,52.76
2018-11-22T14:05:55.338Z,52.75
2018-11-22T14:08:03.484Z,52.74
2018-11-22T14:10:19.824Z,52.74
2018-11-22T14:12:28.433Z,52.66
2018-11-22T14:14:36.550Z,52.66
2018-11-22T14:16:45.142Z,52.64
2018-11-22T14:18:53.130Z,52.61
2018-11-22T14:21:01.206Z,52.59
2018-11-22T14:23:09.227Z,52.61
2018-11-22T14:25:17.725Z,52.61
2018-11-22T14:27:25.699Z,52.62
2018-11-22T14:29:34.847Z,52.61
2018-11-22T14:31:43.115Z,52.64
2018-11-22T14:33:51.175Z,52.66
2018-11-22T14:35:59.186Z,52.62
2018-11-22T14:38:07.930Z,52.64
2018-11-22T14:40:18.450Z,52.61
2018-11-22T14:42:27.149Z,52.61
2018-11-22T14:44:35.339Z,52.58
2018-11-22T14:46:43.662Z,52.59
2018-11-22T14:48:52.263Z,52.59
2018-11-22T14:51:17.259Z,52.59
2018-11-22T14:53:25.649Z,52.55
2018-11-22T14:55:33.660Z,52.58
2018-11-22T14:57:41.866Z,52.56
2018-11-22T14:59:49.973Z,52.55
2018-11-22T15:01:57.989Z,52.55
2018-11-22T15:04:06.350Z,52.53
2018-11-22T15:06:14.592Z,52.53
2018-11-22T15:08:22.752Z,52.53
2018-11-22T15:10:31.205Z,52.52
2018-11-22T15:12:40.408Z,52.51
2018-11-22T15:14:49.471Z,52.50
2018-11-22T15:16:57.527Z,52.48
2018-11-22T15:19:05.539Z,52.47
2018-11-22T15:21:13.907Z,52.47
2018-11-22T15:23:22.164Z,52.50
2018-11-22T15:25:31.317Z,52.47
2018-11-22T15:27:39.551Z,52.45
2018-11-22T15:29:47.891Z,52.46
2018-11-22T15:31:56.197Z,52.46
2018-11-22T15:34:04.314Z,52.46
2018-11-22T15:36:12.723Z,52.48
2018-11-22T15:38:20.910Z,52.51
2018-11-22T15:40:28.975Z,52.51
2018-11-22T15:42:37.257Z,52.50
2018-11-22T15:44:45.723Z,52.48
2018-11-22T15:46:53.865Z,52.49
2018-11-22T15:49:02.425Z,52.51
2018-11-22T15:51:10.492Z,52.52
2018-11-22T15:53:18.774Z,52.58
2018-11-22T15:55:27.581Z,52.60
2018-11-22T15:57:36.836Z,52.65
2018-11-22T15:59:45.385Z,52.67
2018-11-22T16:01:54.027Z,52.65
2018-11-22T16:04:02.427Z,52.67
2018-11-22T16:06:10.562Z,52.69
2018-11-22T16:08:18.711Z,52.71
2018-11-22T16:10:28.412Z,52.70
2018-11-22T16:12:36.926Z,52.73
2018-11-22T16:14:45.641Z,52.76
2018-11-22T16:16:53.954Z,52.81
2018-11-22T16:19:02.377Z,52.86
2018-11-22T16:21:10.835Z,52.92
2018-11-22T16:23:18.860Z,52.98
2018-11-22T16:25:26.947Z,53.00
2018-11-22T16:27:35.521Z,53.03
2018-11-22T16:29:45.316Z,53.05
2018-11-22T16:31:53.437Z,53.10
2018-11-22T16:34:01.662Z,53.13
2018-11-22T16:36:09.678Z,53.19
2018-11-22T16:38:18.117Z,53.21
2018-11-22T16:40:27.744Z,53.25
2018-11-22T16:42:35.736Z,53.28
2018-11-22T16:44:44.061Z,53.30
2018-11-22T16:46:52.126Z,53.34
2018-11-22T16:49:00.158Z,53.39
2018-11-22T16:51:08.385Z,53.42
2018-11-22T16:53:16.532Z,53.44
2018-11-22T16:55:26.008Z,53.45
2018-11-22T16:57:34.055Z,53.50
2018-11-22T16:59:42.198Z,53.52
2018-11-22T17:01:51.425Z,53.53
2018-11-22T17:03:59.526Z,53.57
2018-11-22T17:06:08.103Z,53.65
2018-11-22T17:08:16.810Z,53.64
2018-11-22T17:10:26.191Z,53.66
2018-11-22T17:12:34.309Z,53.68
2018-11-22T17:14:42.552Z,53.67
2018-11-22T17:16:47.961Z,53.69
2018-11-22T17:18:56.030Z,53.68
2018-11-22T17:21:07.152Z,53.70
2018-11-22T17:23:15.258Z,53.76
2018-11-22T17:25:25.756Z,53.84
2018-11-22T17:27:33.919Z,53.91
2018-11-22T17:29:42.499Z,53.95
2018-11-22T17:31:50.827Z,54.00
2018-11-22T17:33:58.866Z,54.03
2018-11-22T17:36:08.345Z,54.04
2018-11-22T17:38:17.455Z,54.04
2018-11-22T17:40:32.414Z,54.06
2018-11-22T17:42:40.716Z,54.07
2018-11-22T17:44:48.725Z,54.07
2018-11-22T17:46:56.902Z,54.08
2018-11-22T17:49:05.207Z,54.11
2018-11-22T17:51:13.216Z,54.12
2018-11-22T17:53:21.476Z,54.12
2018-11-22T17:55:30.610Z,54.15
2018-11-22T17:57:38.868Z,54.18
2018-11-22T17:59:47.311Z,54.23
2018-11-22T18:01:55.568Z,54.25
2018-11-22T18:04:03.858Z,54.29
2018-11-22T18:06:12.200Z,54.33
2018-11-22T18:08:21.205Z,54.39
2018-11-22T18:10:31.824Z,54.47
2018-11-22T18:12:40.433Z,54.48
2018-11-22T18:14:48.668Z,54.53
2018-11-22T18:16:53.744Z,54.55
2018-11-22T18:19:01.961Z,54.61
2018-11-22T18:21:10.313Z,54.68
2018-11-22T18:23:18.424Z,54.75
2018-11-22T18:25:28.009Z,54.84
2018-11-22T18:27:36.310Z,54.94
2018-11-22T18:29:44.369Z,55.03
2018-11-22T18:31:52.607Z,55.08
2018-11-22T18:34:00.937Z,55.13
2018-11-22T18:36:09.009Z,55.12
2018-11-22T18:38:17.223Z,55.15
2018-11-22T18:40:26.496Z,55.15
2018-11-22T18:42:35.036Z,55.14
2018-11-22T18:44:44.182Z,55.13
2018-11-22T18:46:52.561Z,55.09
2018-11-22T18:49:04.309Z,55.08
2018-11-22T18:51:12.406Z,55.04
2018-11-22T18:53:20.644Z,55.01
2018-11-22T18:55:28.904Z,55.04
2018-11-22T18:57:37.076Z,55.07
2018-11-22T18:59:46.092Z,55.09
2018-11-22T19:01:54.393Z,55.10
2018-11-22T19:04:02.651Z,55.07
2018-11-22T19:06:11.783Z,55.07
2018-11-22T19:08:19.802Z,55.06
2018-11-22T19:10:29.610Z,55.08
2018-11-22T19:12:37.649Z,55.08
2018-11-22T19:14:46.316Z,55.07
2018-11-22T19:16:54.511Z,55.07
2018-11-22T19:18:59.799Z,55.10
2018-11-22T19:21:08.350Z,55.16
2018-11-22T19:23:17.515Z,55.19
2018-11-22T19:25:26.379Z,55.25
2018-11-22T19:27:34.475Z,55.29
2018-11-22T19:29:42.708Z,55.34
2018-11-22T19:31:51.701Z,55.41
2018-11-22T19:33:59.778Z,55.43
2018-11-22T19:36:08.326Z,55.41
2018-11-22T19:38:16.596Z,55.37
2018-11-22T19:40:31.852Z,55.36
2018-11-22T19:42:40.130Z,55.33
2018-11-22T19:44:48.785Z,55.37
2018-11-22T19:46:57.054Z,55.43
2018-11-22T19:49:05.052Z,55.51
2018-11-22T19:51:13.137Z,55.60
2018-11-22T19:53:21.354Z,55.67
2018-11-22T19:55:30.743Z,55.69
2018-11-22T19:57:39.160Z,55.68
2018-11-22T19:59:47.347Z,55.68
2018-11-22T20:01:55.689Z,55.70
2018-11-22T20:04:03.794Z,55.73
2018-11-22T20:06:11.840Z,55.76
2018-11-22T20:08:20.626Z,55.84
2018-11-22T20:10:32.880Z,55.87
2018-11-22T20:12:41.358Z,55.93
2018-11-22T20:14:49.446Z,56.01
2018-11-22T20:16:57.472Z,56.10
2018-11-22T20:19:06.161Z,56.17
2018-11-22T20:21:14.208Z,56.24
2018-11-22T20:23:22.695Z,56.27
2018-11-22T20:25:30.673Z,56.24
2018-11-22T20:27:39.275Z,56.20
2018-11-22T20:29:47.476Z,56.14
2018-11-22T20:31:55.533Z,56.06
2018-11-22T20:34:03.917Z,56.03
2018-11-22T20:36:12.082Z,55.98
2018-11-22T20:38:20.256Z,55.96
2018-11-22T20:40:28.823Z,55.94
2018-11-22T20:42:36.994Z,55.94
2018-11-22T20:44:45.111Z,55.97
2018-11-22T20:46:53.217Z,56.06
2018-11-22T20:49:01.294Z,56.13
2018-11-22T20:51:09.397Z,56.16
2018-11-22T20:53:17.680Z,56.23
2018-11-22T20:55:32.787Z,56.26
2018-11-22T20:57:40.830Z,56.30
2018-11-22T20:59:48.929Z,56.28
2018-11-22T21:01:57.310Z,56.28
2018-11-22T21:04:05.363Z,56.35
2018-11-22T21:06:13.770Z,56.44
2018-11-22T21:08:21.922Z,56.56
2018-11-22T21:10:32.288Z,56.64
2018-11-22T21:12:40.745Z,56.64
2018-11-22T21:14:49.043Z,56.63
2018-11-22T21:16:57.077Z,56.66
2018-11-22T21:19:05.236Z,56.58
2018-11-22T21:21:14.224Z,56.53
2018-11-22T21:23:22.408Z,56.51
2018-11-22T21:25:30.537Z,56.49
2018-11-22T21:27:38.606Z,56.48
2018-11-22T21:29:46.723Z,56.47
2018-11-22T21:31:54.996Z,56.46
2018-11-22T21:34:03.284Z,56.45
2018-11-22T21:36:11.390Z,56.45
2018-11-22T21:38:19.466Z,56.44
2018-11-22T21:40:28.098Z,56.48
2018-11-22T21:42:36.106Z,56.50
2018-11-22T21:44:44.198Z,56.49
2018-11-22T21:46:52.259Z,56.49
2018-11-22T21:49:00.530Z,56.51
2018-11-22T21:51:08.811Z,56.57
2018-11-22T21:53:16.821Z,56.61
2018-11-22T21:55:29.764Z,56.62
2018-11-22T21:57:38.795Z,56.64
2018-11-22T21:59:47.244Z,56.64
2018-11-22T22:01:55.307Z,56.66
2018-11-22T22:04:03.376Z,56.63
2018-11-22T22:06:11.474Z,56.66
2018-11-22T22:08:19.460Z,56.67
2018-11-22T22:10:27.532Z,56.69
2018-11-22T22:12:35.512Z,56.73
2018-11-22T22:14:43.711Z,56.71
2018-11-22T22:16:51.793Z,56.67
2018-11-22T22:19:00.813Z,56.69
2018-11-22T22:21:08.925Z,56.72
2018-11-22T22:23:14.092Z,56.75
2018-11-22T22:25:23.000Z,56.77
2018-11-22T22:27:31.030Z,56.80
2018-11-22T22:29:39.048Z,56.86
2018-11-22T22:31:47.073Z,56.92
2018-11-22T22:33:55.234Z,57.02
2018-11-22T22:36:03.348Z,57.13
2018-11-22T22:38:11.482Z,57.24
2018-11-22T22:40:20.755Z,57.32
2018-11-22T22:42:28.781Z,57.37
2018-11-22T22:44:36.734Z,57.45
2018-11-22T22:46:45.367Z,57.52
2018-11-22T22:48:53.534Z,57.56
2018-11-22T22:51:01.503Z,57.56
2018-11-22T22:53:09.478Z,57.55
2018-11-22T22:55:17.499Z,57.43
2018-11-22T22:57:25.573Z,57.36
2018-11-22T22:59:33.709Z,57.30
2018-11-22T23:01:42.358Z,57.24
2018-11-22T23:03:51.618Z,57.23
2018-11-22T23:06:00.857Z,57.28
2018-11-22T23:08:09.523Z,57.35
2018-11-22T23:10:19.296Z,57.44
2018-11-22T23:12:32.035Z,57.41
2018-11-22T23:14:42.728Z,57.43
2018-11-22T23:16:53.026Z,57.44
2018-11-22T23:19:04.270Z,57.43
2018-11-22T23:21:13.213Z,57.42
2018-11-22T23:23:18.976Z,57.41
2018-11-22T23:25:28.554Z,57.39
2018-11-22T23:27:36.626Z,57.40
2018-11-22T23:29:46.176Z,57.41
2018-11-22T23:31:54.773Z,57.41
2018-11-22T23:34:02.763Z,57.45
2018-11-22T23:36:10.886Z,57.47
2018-11-22T23:38:19.973Z,57.46
2018-11-22T23:40:29.097Z,57.47
2018-11-22T23:42:37.205Z,57.47
2018-11-22T23:44:45.167Z,57.43
2018-11-22T23:46:53.312Z,57.43
2018-11-22T23:49:01.464Z,57.40
2018-11-22T23:51:09.641Z,57.42
2018-11-22T23:53:17.620Z,57.48
2018-11-22T23:55:25.686Z,57.54
2018-11-22T23:57:33.954Z,57.62
2018-11-22T23:59:42.509Z,57.70
